Hauptseite
METAR-TAF:

METAR-TAF

Flughäfen :

Bohrplattform

Awg-1, Niederlande

Breite: 53-29-30N, Länge: 5-56-30E, Höhe: 33 m

Beobachtung

Neuester Wetterbericht von vor 26 Minuten, um 16:25 UTC
Wind 24 kt aus Süd/Südwest, variierte zwischen Süd und West/Südwest
Temperatur 6°C
Luftfeuchtigkeit 100%
Luftdruck 1013 hPa
Sichtweite: 2100 m
Durchbrochene Bewölkung in der Höhe von 100 ft
Durchbrochene Bewölkung in der Höhe von 200 ft
Durchbrochene Bewölkung in der Höhe von 400 ft
Leicht bewölkt in der Höhe von 1500 ft, Kumulonimbus.
Leichtregen

METAR: EHMA 301625Z AUTO 21024KT 180V240 2100 -RA BKN001 BKN002 BKN004 FEW015CB 06/06 Q1013

Zeit: 17:51 (16:51 UTC)


TAF: fehlend

Wetterbeobachtungen und Prognosen von mehr als 4000 Flughäfen (METAR und TAF Bericht).

Die verfügbaren Stationen werden durch gelbe und rote Markierungen auf der Karte dargestellt.

Führen Sie die Maus auf sie, um den Namen der Station zu sehen.

Darauf klicken, um die Beobachtung von Wetterbeobachtungen und Prognosen zu sehen.

Um die Karte zu ändern : klicken Sie auf den grünen Tasten mit einem schwarzen Kreuz Zum Vergrößern, auf den grünen Button mit einem Gedankenstrich zu verkleinern, oder auf die grünen Pfeile für benachbarte Karten.


METAR-TAF: